createdAt,value
2023-05-22T00:01:43.526Z,21.51
2023-05-22T00:04:19.539Z,21.35
2023-05-22T00:06:46.432Z,21.52
2023-05-22T00:09:13.090Z,21.55
2023-05-22T00:11:39.797Z,21.96
2023-05-22T00:14:06.536Z,22.03
2023-05-22T00:16:33.365Z,21.77
2023-05-22T00:19:01.960Z,22.15
2023-05-22T00:21:34.712Z,22.11
2023-05-22T00:24:01.985Z,22.17
2023-05-22T00:26:28.709Z,22.13
2023-05-22T00:28:55.538Z,22.02
2023-05-22T00:31:22.101Z,21.92
2023-05-22T00:36:15.855Z,21.38
2023-05-22T00:38:42.399Z,21.48
2023-05-22T00:41:09.021Z,21.38
2023-05-22T00:43:36.284Z,21.39
2023-05-22T00:46:03.011Z,21.51
2023-05-22T00:48:29.667Z,20.99
2023-05-22T00:50:58.084Z,20.81
2023-05-22T00:53:26.055Z,20.88
2023-05-22T00:55:54.496Z,21.34
2023-05-22T00:58:22.048Z,21.44
2023-05-22T01:03:26.852Z,20.77
2023-05-22T01:05:54.686Z,20.85
2023-05-22T01:08:21.747Z,20.75
2023-05-22T01:10:57.044Z,20.79
2023-05-22T01:13:45.225Z,20.48
2023-05-22T01:16:23.942Z,20.27
2023-05-22T01:18:56.269Z,20.50
2023-05-22T01:21:36.842Z,20.76
2023-05-22T01:24:18.669Z,20.74
2023-05-22T01:27:06.800Z,20.47
2023-05-22T01:29:48.070Z,20.95
2023-05-22T01:32:20.027Z,20.75
2023-05-22T01:34:49.418Z,20.38
2023-05-22T01:37:18.437Z,20.72
2023-05-22T01:39:46.391Z,20.78
2023-05-22T01:42:13.462Z,20.54
2023-05-22T01:44:41.456Z,20.38
2023-05-22T01:47:08.476Z,20.16
2023-05-22T01:49:36.458Z,20.27
2023-05-22T01:52:13.066Z,20.42
2023-05-22T01:54:50.392Z,20.56
2023-05-22T01:57:28.654Z,20.83
2023-05-22T02:00:10.004Z,20.76
2023-05-22T02:02:38.725Z,20.27
2023-05-22T02:05:08.597Z,20.55
2023-05-22T02:07:38.120Z,20.46
2023-05-22T02:10:07.319Z,20.53
2023-05-22T02:12:34.396Z,20.52
2023-05-22T02:15:01.608Z,20.27
2023-05-22T02:17:28.349Z,20.34
2023-05-22T02:19:54.973Z,20.38
2023-05-22T02:22:21.545Z,20.18
2023-05-22T02:24:48.810Z,20.39
2023-05-22T02:27:16.910Z,21.03
2023-05-22T02:29:43.457Z,21.00
2023-05-22T02:32:10.397Z,20.45
2023-05-22T02:34:38.070Z,20.69
2023-05-22T02:37:05.539Z,20.70
2023-05-22T02:39:32.213Z,20.63
2023-05-22T02:41:59.048Z,20.41
2023-05-22T02:44:25.628Z,20.39
2023-05-22T02:46:52.665Z,20.73
2023-05-22T02:49:19.389Z,21.15
2023-05-22T02:51:47.873Z,20.98
2023-05-22T02:54:16.099Z,21.17
2023-05-22T02:56:43.784Z,21.26
2023-05-22T02:59:10.545Z,20.72
2023-05-22T03:01:39.002Z,21.03
2023-05-22T03:04:06.628Z,20.79
2023-05-22T03:06:34.345Z,20.48
2023-05-22T03:09:01.333Z,20.43
2023-05-22T03:11:27.975Z,21.08
2023-05-22T03:13:54.536Z,20.84
2023-05-22T03:16:21.413Z,19.97
2023-05-22T03:18:51.316Z,19.31
2023-05-22T03:21:17.894Z,19.90
2023-05-22T03:23:45.011Z,20.39
2023-05-22T03:26:11.692Z,19.84
2023-05-22T03:28:38.260Z,20.14
2023-05-22T03:31:05.027Z,20.27
2023-05-22T03:33:31.645Z,20.32
2023-05-22T03:35:58.204Z,20.28
2023-05-22T03:38:24.954Z,20.43
2023-05-22T03:40:51.550Z,20.01
2023-05-22T03:43:18.086Z,20.20
2023-05-22T03:45:44.855Z,20.34
2023-05-22T03:48:12.798Z,20.12
2023-05-22T03:50:39.888Z,20.16
2023-05-22T03:53:06.766Z,19.78
2023-05-22T03:55:33.358Z,19.46
2023-05-22T03:57:59.932Z,19.89
2023-05-22T04:00:27.184Z,18.99
2023-05-22T04:02:54.879Z,19.70
2023-05-22T04:05:22.240Z,19.74
2023-05-22T04:07:49.034Z,19.50
2023-05-22T04:10:15.660Z,19.07
2023-05-22T04:12:42.193Z,19.59
2023-05-22T04:15:09.438Z,18.99
2023-05-22T04:17:39.800Z,20.14
2023-05-22T04:20:07.285Z,19.65
2023-05-22T04:22:34.222Z,19.56
2023-05-22T04:25:00.773Z,20.05
2023-05-22T04:27:29.788Z,20.62
2023-05-22T04:29:56.479Z,20.62
2023-05-22T04:32:23.753Z,19.14
2023-05-22T04:34:51.124Z,20.21
2023-05-22T04:37:20.447Z,20.43
2023-05-22T04:39:47.377Z,20.39
2023-05-22T04:42:14.588Z,20.02
2023-05-22T04:44:42.012Z,19.10
2023-05-22T04:47:12.209Z,19.46
2023-05-22T04:49:39.218Z,19.71
2023-05-22T04:52:09.086Z,19.77
2023-05-22T04:54:36.233Z,20.45
2023-05-22T04:57:04.549Z,20.21
2023-05-22T04:59:38.166Z,20.36
2023-05-22T05:02:07.913Z,20.76
2023-05-22T05:04:34.688Z,20.19
2023-05-22T05:07:02.667Z,20.79
2023-05-22T05:09:29.566Z,21.07
2023-05-22T05:11:56.345Z,20.41
2023-05-22T05:14:23.223Z,20.13
2023-05-22T05:16:51.822Z,21.13
2023-05-22T05:19:21.674Z,21.57
2023-05-22T05:21:49.589Z,21.94
2023-05-22T05:24:19.992Z,21.98
2023-05-22T05:26:46.691Z,22.06
2023-05-22T05:29:13.320Z,22.39
2023-05-22T05:31:39.922Z,22.76
2023-05-22T05:34:06.712Z,22.97
2023-05-22T05:36:33.379Z,22.49
2023-05-22T05:39:00.028Z,21.70
2023-05-22T05:41:26.795Z,23.02
2023-05-22T05:43:53.486Z,22.60
2023-05-22T05:46:20.157Z,21.75
2023-05-22T05:48:46.933Z,22.60
2023-05-22T05:51:13.649Z,23.38
2023-05-22T05:53:43.278Z,23.51
2023-05-22T05:56:10.006Z,23.68
2023-05-22T05:58:37.184Z,23.38
2023-05-22T06:01:04.224Z,23.90
2023-05-22T06:03:31.315Z,24.35
2023-05-22T06:05:58.377Z,24.02
2023-05-22T06:08:25.122Z,24.01
2023-05-22T06:10:51.743Z,23.62
2023-05-22T06:13:18.449Z,23.86
2023-05-22T06:15:45.093Z,23.29
2023-05-22T06:18:11.890Z,23.91
2023-05-22T06:20:39.986Z,24.32
2023-05-22T06:23:06.966Z,24.49
2023-05-22T06:25:33.821Z,24.41
2023-05-22T06:28:01.042Z,24.69
2023-05-22T06:30:39.631Z,24.67
2023-05-22T06:33:07.793Z,24.32
2023-05-22T06:35:34.567Z,23.13
2023-05-22T06:38:01.124Z,23.58
2023-05-22T06:40:27.972Z,24.24
2023-05-22T06:42:54.602Z,23.70
2023-05-22T06:45:21.227Z,23.34
2023-05-22T06:47:52.964Z,24.02
2023-05-22T06:50:20.650Z,23.87
2023-05-22T06:52:47.261Z,23.99
2023-05-22T06:55:14.082Z,23.85
2023-05-22T06:57:40.801Z,24.51
2023-05-22T07:00:09.623Z,24.82
2023-05-22T07:02:36.322Z,25.25
2023-05-22T07:05:03.256Z,25.58
2023-05-22T07:07:31.221Z,25.62
2023-05-22T07:09:57.895Z,25.73
2023-05-22T07:12:26.300Z,25.24
2023-05-22T07:14:53.874Z,25.76
2023-05-22T07:17:21.972Z,25.26
2023-05-22T07:19:48.894Z,25.03
2023-05-22T07:22:15.857Z,25.88
2023-05-22T07:24:42.961Z,26.22
2023-05-22T07:27:09.864Z,27.26
2023-05-22T07:29:36.423Z,27.59
2023-05-22T07:32:03.266Z,27.18
2023-05-22T07:34:34.188Z,27.49
2023-05-22T07:37:07.411Z,27.83
2023-05-22T07:39:34.019Z,27.22
2023-05-22T07:42:01.628Z,27.49
2023-05-22T07:44:28.730Z,28.14
2023-05-22T07:46:55.795Z,28.02
2023-05-22T07:49:23.808Z,27.83
2023-05-22T07:51:50.792Z,26.30
2023-05-22T07:54:18.298Z,24.43
2023-05-22T07:56:46.066Z,24.70
2023-05-22T07:59:13.029Z,24.97
2023-05-22T08:01:41.817Z,24.52
2023-05-22T08:04:08.823Z,24.90
2023-05-22T08:06:36.291Z,24.45
2023-05-22T08:09:04.406Z,24.58
2023-05-22T08:11:31.249Z,24.91
2023-05-22T08:13:58.300Z,24.50
2023-05-22T08:16:25.079Z,22.64
2023-05-22T08:18:51.946Z,24.80
2023-05-22T08:21:18.989Z,25.13
2023-05-22T08:23:45.670Z,25.68
2023-05-22T08:26:12.227Z,22.34
2023-05-22T08:28:44.207Z,24.88
2023-05-22T08:31:11.717Z,24.15
2023-05-22T08:33:38.637Z,24.58
2023-05-22T08:36:06.187Z,26.14
2023-05-22T08:38:32.879Z,26.17
2023-05-22T08:41:00.169Z,25.10
2023-05-22T08:43:28.725Z,24.38
2023-05-22T08:46:16.304Z,25.80
2023-05-22T08:48:43.583Z,25.09
2023-05-22T08:51:13.332Z,23.62
2023-05-22T08:53:43.477Z,24.72
2023-05-22T08:56:10.785Z,25.94
2023-05-22T08:58:38.175Z,25.97
2023-05-22T09:01:06.986Z,25.64
2023-05-22T09:03:35.342Z,25.30
2023-05-22T09:06:02.510Z,24.11
2023-05-22T09:08:29.220Z,23.98
2023-05-22T09:10:56.635Z,23.77
2023-05-22T09:13:29.165Z,24.93
2023-05-22T09:16:12.992Z,25.32
2023-05-22T09:18:40.602Z,25.77
2023-05-22T09:21:21.558Z,26.17
2023-05-22T09:23:54.848Z,26.04
2023-05-22T09:26:21.607Z,27.02
2023-05-22T09:28:48.196Z,27.03
2023-05-22T09:31:15.271Z,26.28
2023-05-22T09:33:44.240Z,26.55
2023-05-22T09:36:11.122Z,26.75
2023-05-22T09:38:39.353Z,27.27
2023-05-22T09:41:06.194Z,26.42
2023-05-22T09:43:33.693Z,27.54
2023-05-22T09:46:06.927Z,24.36
2023-05-22T09:48:36.642Z,26.51
2023-05-22T09:51:04.583Z,26.42
2023-05-22T09:53:33.163Z,26.67
2023-05-22T09:56:00.487Z,27.30
2023-05-22T09:58:30.927Z,25.93
2023-05-22T10:00:58.382Z,27.23
2023-05-22T10:03:27.140Z,27.26
2023-05-22T10:05:56.416Z,26.31
2023-05-22T10:08:28.573Z,25.12
2023-05-22T10:10:55.425Z,26.03
2023-05-22T10:13:22.302Z,26.94
2023-05-22T10:15:49.997Z,28.25
2023-05-22T10:18:17.586Z,28.84
2023-05-22T10:20:47.008Z,27.95
2023-05-22T10:23:15.302Z,26.94
2023-05-22T10:25:42.886Z,25.60
2023-05-22T10:28:10.468Z,27.24
2023-05-22T10:30:44.572Z,27.26
2023-05-22T10:33:22.408Z,26.96
2023-05-22T10:35:59.207Z,27.18
2023-05-22T10:38:40.073Z,28.87
2023-05-22T10:41:07.914Z,27.25
2023-05-22T10:43:38.795Z,27.00
2023-05-22T10:46:07.157Z,27.99
2023-05-22T10:48:45.456Z,27.04
2023-05-22T10:51:19.441Z,27.98
2023-05-22T10:53:53.421Z,29.08
2023-05-22T10:56:20.815Z,29.10
2023-05-22T10:59:03.009Z,27.78
2023-05-22T11:01:29.693Z,28.41
2023-05-22T11:03:59.912Z,27.01
2023-05-22T11:06:37.055Z,28.26
2023-05-22T11:09:32.439Z,28.37
2023-05-22T11:12:17.766Z,26.06
2023-05-22T11:14:53.052Z,26.94
2023-05-22T11:17:29.716Z,25.53
2023-05-22T11:20:00.913Z,24.57
2023-05-22T11:22:31.721Z,25.68
2023-05-22T11:24:58.423Z,25.76
2023-05-22T11:27:25.601Z,26.72
2023-05-22T11:29:52.927Z,26.03
2023-05-22T11:32:21.102Z,28.22
2023-05-22T11:34:50.507Z,27.77
2023-05-22T11:37:20.980Z,25.30
2023-05-22T11:39:58.257Z,24.40
2023-05-22T11:42:25.270Z,25.61
2023-05-22T11:44:51.881Z,26.44
2023-05-22T11:47:18.553Z,26.52
2023-05-22T11:49:45.362Z,28.01
2023-05-22T11:52:11.945Z,26.82
2023-05-22T11:54:39.027Z,27.61
2023-05-22T11:57:09.329Z,27.35
2023-05-22T11:59:36.257Z,28.05
2023-05-22T12:02:03.092Z,26.80
2023-05-22T12:04:29.924Z,27.60
2023-05-22T12:06:56.935Z,27.97
2023-05-22T12:09:24.071Z,28.97
2023-05-22T12:11:51.041Z,28.83
2023-05-22T12:14:17.717Z,28.10
2023-05-22T12:16:44.722Z,27.71
2023-05-22T12:19:12.727Z,28.71
2023-05-22T12:21:41.011Z,28.67
2023-05-22T12:24:08.473Z,26.29
2023-05-22T12:26:36.504Z,26.73
2023-05-22T12:29:06.129Z,26.63
2023-05-22T12:31:37.562Z,26.99
2023-05-22T12:34:06.508Z,27.32
2023-05-22T12:36:33.981Z,27.03
2023-05-22T12:39:00.808Z,26.07
2023-05-22T12:41:27.374Z,25.48
2023-05-22T12:43:53.933Z,26.34
2023-05-22T12:46:20.772Z,25.84
2023-05-22T12:48:47.415Z,26.49
2023-05-22T12:51:14.008Z,27.99
2023-05-22T12:53:40.796Z,28.94
2023-05-22T12:56:07.327Z,29.94
2023-05-22T12:58:34.078Z,30.31
2023-05-22T13:01:00.993Z,27.67
2023-05-22T13:03:27.748Z,27.47
2023-05-22T13:05:54.302Z,27.48
2023-05-22T13:08:21.079Z,28.41
2023-05-22T13:10:47.633Z,28.30
2023-05-22T13:13:14.204Z,28.87
2023-05-22T13:15:41.521Z,28.91
2023-05-22T13:18:08.349Z,29.36
2023-05-22T13:20:37.345Z,27.82
2023-05-22T13:23:04.815Z,27.74
2023-05-22T13:25:31.357Z,28.48
2023-05-22T13:27:59.883Z,29.80
2023-05-22T13:30:26.930Z,30.15
2023-05-22T13:32:53.708Z,29.45
2023-05-22T13:35:20.542Z,30.21
2023-05-22T13:37:47.460Z,29.31
2023-05-22T13:40:15.209Z,28.20
2023-05-22T13:42:41.894Z,28.79
2023-05-22T13:45:09.679Z,30.10
2023-05-22T13:47:36.420Z,30.60
2023-05-22T13:50:03.203Z,30.76
2023-05-22T13:52:30.055Z,28.70
2023-05-22T13:54:56.620Z,29.11
2023-05-22T13:57:23.190Z,30.47
2023-05-22T13:59:49.959Z,30.33
2023-05-22T14:02:16.567Z,29.96
2023-05-22T14:04:43.216Z,30.35
2023-05-22T14:07:10.041Z,29.31
2023-05-22T14:09:36.603Z,30.63
2023-05-22T14:12:03.495Z,30.09
2023-05-22T14:14:30.157Z,30.43
2023-05-22T14:16:57.308Z,30.27
2023-05-22T14:19:24.717Z,30.86
2023-05-22T14:21:51.923Z,29.78
2023-05-22T14:24:18.523Z,28.02
2023-05-22T14:26:45.485Z,29.00
2023-05-22T14:29:12.715Z,27.54
2023-05-22T14:31:50.521Z,28.92
2023-05-22T14:34:18.503Z,30.11
2023-05-22T14:36:45.099Z,31.44
2023-05-22T14:39:11.748Z,30.84
2023-05-22T14:41:38.498Z,30.66
2023-05-22T14:44:05.136Z,32.22
2023-05-22T14:46:31.788Z,32.07
2023-05-22T14:48:58.584Z,33.49
2023-05-22T14:51:25.196Z,32.36
2023-05-22T14:53:51.937Z,33.26
2023-05-22T14:56:18.661Z,32.95
2023-05-22T14:58:45.448Z,33.35
2023-05-22T15:01:12.063Z,34.28
2023-05-22T15:03:38.663Z,30.71
2023-05-22T15:06:06.076Z,33.36
2023-05-22T15:08:32.738Z,33.84
2023-05-22T15:10:59.558Z,31.25
2023-05-22T15:13:26.221Z,30.77
2023-05-22T15:15:52.928Z,29.49
2023-05-22T15:18:20.230Z,27.15
2023-05-22T15:20:46.985Z,30.53
2023-05-22T15:23:13.805Z,31.11
2023-05-22T15:25:41.170Z,31.14
2023-05-22T15:28:08.096Z,32.27
2023-05-22T15:30:38.947Z,32.08
2023-05-22T15:33:05.801Z,28.65
2023-05-22T15:35:32.524Z,30.51
2023-05-22T15:37:59.254Z,28.46
2023-05-22T15:40:25.960Z,30.75
2023-05-22T15:42:53.378Z,30.41
2023-05-22T15:45:20.906Z,29.64
2023-05-22T15:47:48.173Z,30.33
2023-05-22T15:50:14.969Z,31.06
2023-05-22T15:52:41.731Z,32.05
2023-05-22T15:55:08.603Z,31.64
2023-05-22T15:57:35.406Z,31.72
2023-05-22T16:00:02.296Z,32.42
2023-05-22T16:02:29.183Z,32.48
2023-05-22T16:04:56.306Z,33.66
2023-05-22T16:07:22.930Z,34.78
2023-05-22T16:09:50.508Z,33.79
2023-05-22T16:12:18.968Z,31.82
2023-05-22T16:14:45.770Z,31.49
2023-05-22T16:17:12.593Z,31.58
2023-05-22T16:19:39.268Z,31.19
2023-05-22T16:22:05.947Z,31.81
2023-05-22T16:24:33.893Z,31.14
2023-05-22T16:27:00.792Z,31.89
2023-05-22T16:29:27.375Z,30.02
2023-05-22T16:31:54.137Z,29.74
2023-05-22T16:34:20.880Z,30.88
2023-05-22T16:36:47.567Z,32.43
2023-05-22T16:39:15.597Z,30.61
2023-05-22T16:41:42.209Z,29.04
2023-05-22T16:44:08.888Z,28.51
2023-05-22T16:46:35.767Z,30.97
2023-05-22T16:49:02.609Z,30.19
2023-05-22T16:51:29.343Z,28.98
2023-05-22T16:53:56.133Z,31.18
2023-05-22T16:56:22.822Z,33.03
2023-05-22T16:58:49.388Z,34.21
2023-05-22T17:01:16.267Z,33.48
2023-05-22T17:03:43.812Z,31.28
2023-05-22T17:06:10.652Z,32.29
2023-05-22T17:08:37.732Z,31.55
2023-05-22T17:11:04.471Z,34.17
2023-05-22T17:13:31.105Z,35.64
2023-05-22T17:15:57.958Z,34.41
2023-05-22T17:18:24.570Z,34.70
2023-05-22T17:20:53.947Z,33.45
2023-05-22T17:23:20.996Z,31.16
2023-05-22T17:25:47.923Z,33.36
2023-05-22T17:28:15.022Z,35.40
2023-05-22T17:30:43.015Z,35.47
2023-05-22T17:33:10.902Z,36.08
2023-05-22T17:35:37.566Z,37.24
2023-05-22T17:38:04.269Z,37.46
2023-05-22T17:43:02.523Z,31.86
2023-05-22T17:45:30.353Z,28.64
2023-05-22T17:47:57.068Z,33.06
2023-05-22T17:50:23.706Z,32.91
2023-05-22T17:52:50.510Z,32.71
2023-05-22T17:55:17.690Z,31.79
2023-05-22T17:57:44.316Z,31.34
2023-05-22T18:00:11.824Z,32.98
2023-05-22T18:02:38.562Z,31.48
2023-05-22T18:05:06.238Z,31.06
2023-05-22T18:07:33.118Z,29.45
2023-05-22T18:09:59.801Z,32.57
2023-05-22T18:12:31.554Z,31.44
2023-05-22T18:14:59.307Z,32.54
2023-05-22T18:17:25.965Z,30.82
2023-05-22T18:19:52.559Z,30.86
2023-05-22T18:22:19.261Z,31.57
2023-05-22T18:24:45.987Z,31.67
2023-05-22T18:27:12.567Z,31.11
2023-05-22T18:29:40.238Z,28.64
2023-05-22T18:32:09.456Z,29.00
2023-05-22T18:34:37.810Z,27.11
2023-05-22T18:37:04.756Z,28.74
2023-05-22T18:39:31.535Z,28.45
2023-05-22T18:41:58.707Z,27.62
2023-05-22T18:44:25.408Z,27.38
2023-05-22T18:46:52.123Z,27.52
2023-05-22T18:49:18.863Z,26.12
2023-05-22T18:51:46.015Z,25.66
2023-05-22T18:54:12.627Z,24.90
2023-05-22T18:56:39.419Z,25.94
2023-05-22T18:59:06.186Z,25.44
2023-05-22T19:01:33.217Z,24.65
2023-05-22T19:04:00.873Z,24.23
2023-05-22T19:06:27.585Z,24.61
2023-05-22T19:08:54.346Z,24.15
2023-05-22T19:11:21.043Z,24.39
2023-05-22T19:13:47.705Z,23.68
2023-05-22T19:16:14.535Z,24.37
2023-05-22T19:18:41.593Z,24.00
2023-05-22T19:21:08.521Z,24.19
2023-05-22T19:23:35.173Z,23.62
2023-05-22T19:26:01.898Z,23.49
2023-05-22T19:28:28.775Z,23.63
2023-05-22T19:30:58.207Z,23.50
2023-05-22T19:33:26.361Z,23.97
2023-05-22T19:35:53.580Z,23.70
2023-05-22T19:38:20.343Z,23.71
2023-05-22T19:40:46.954Z,23.52
2023-05-22T19:43:13.784Z,23.06
2023-05-22T19:45:40.481Z,23.67
2023-05-22T19:48:07.152Z,23.15
2023-05-22T19:50:35.635Z,23.13
2023-05-22T19:53:02.419Z,23.50
2023-05-22T19:55:29.114Z,23.66
2023-05-22T19:57:55.886Z,23.04
2023-05-22T20:00:22.852Z,23.90
2023-05-22T20:02:50.263Z,23.23
2023-05-22T20:05:17.157Z,23.43
2023-05-22T20:07:43.749Z,23.09
2023-05-22T20:10:11.276Z,23.94
2023-05-22T20:12:38.559Z,22.66
2023-05-22T20:15:07.193Z,23.20
2023-05-22T20:17:34.371Z,23.86
2023-05-22T20:20:01.126Z,22.76
2023-05-22T20:22:28.026Z,23.18
2023-05-22T20:24:54.689Z,22.73
2023-05-22T20:27:21.494Z,22.83
2023-05-22T20:29:50.282Z,22.59
2023-05-22T20:32:17.193Z,22.55
2023-05-22T20:34:45.316Z,22.55
2023-05-22T20:37:13.727Z,23.33
2023-05-22T20:39:44.360Z,22.28
2023-05-22T20:42:13.092Z,22.72
2023-05-22T20:44:41.298Z,21.97
2023-05-22T20:47:08.908Z,22.50
2023-05-22T20:49:36.089Z,22.16
2023-05-22T20:52:02.906Z,22.03
2023-05-22T20:54:34.098Z,22.55
2023-05-22T20:57:01.579Z,23.04
2023-05-22T20:59:31.007Z,22.69
2023-05-22T21:01:57.936Z,22.22
2023-05-22T21:04:26.261Z,21.96
2023-05-22T21:06:54.106Z,22.26
2023-05-22T21:09:20.790Z,21.94
2023-05-22T21:11:47.562Z,21.85
2023-05-22T21:14:14.580Z,22.20
2023-05-22T21:16:41.290Z,21.64
2023-05-22T21:19:08.153Z,21.89
2023-05-22T21:21:36.325Z,21.43
2023-05-22T21:24:03.458Z,21.39
2023-05-22T21:26:30.185Z,22.33
2023-05-22T21:28:57.221Z,21.56
2023-05-22T21:31:23.978Z,21.39
2023-05-22T21:33:50.746Z,21.42
2023-05-22T21:36:17.498Z,21.17
2023-05-22T21:38:44.716Z,21.37
2023-05-22T21:41:14.455Z,22.16
2023-05-22T21:43:41.457Z,22.04
2023-05-22T21:46:08.315Z,22.08
2023-05-22T21:48:34.972Z,22.04
2023-05-22T21:51:01.605Z,21.97
2023-05-22T21:53:28.181Z,22.16
2023-05-22T21:55:54.781Z,22.13
2023-05-22T21:58:21.433Z,22.31
2023-05-22T22:00:48.020Z,22.25
2023-05-22T22:03:14.754Z,22.03
2023-05-22T22:05:41.680Z,21.77
2023-05-22T22:08:08.252Z,21.76
2023-05-22T22:10:34.855Z,21.91
2023-05-22T22:13:02.356Z,21.52
2023-05-22T22:15:29.046Z,21.64
2023-05-22T22:17:59.571Z,21.53
2023-05-22T22:20:42.705Z,21.48
2023-05-22T22:23:11.529Z,21.78
2023-05-22T22:25:39.275Z,21.61
2023-05-22T22:28:07.333Z,21.84
2023-05-22T22:30:35.320Z,21.81
2023-05-22T22:33:02.171Z,21.86
2023-05-22T22:35:28.879Z,21.71
2023-05-22T22:37:55.586Z,21.85
2023-05-22T22:40:22.763Z,21.89
2023-05-22T22:42:50.348Z,21.70
2023-05-22T22:45:17.041Z,21.79
2023-05-22T22:47:43.671Z,21.49
2023-05-22T22:50:10.565Z,21.72
2023-05-22T22:52:37.957Z,21.66
2023-05-22T22:55:06.705Z,21.68
2023-05-22T22:57:33.435Z,21.33
2023-05-22T23:00:00.167Z,21.98
2023-05-22T23:02:26.732Z,21.96
2023-05-22T23:04:53.453Z,21.49
2023-05-22T23:07:20.192Z,21.78
2023-05-22T23:09:46.884Z,21.84
2023-05-22T23:12:13.496Z,21.69
2023-05-22T23:14:40.204Z,21.37
2023-05-22T23:17:06.800Z,21.33
2023-05-22T23:19:33.468Z,21.73
2023-05-22T23:22:00.208Z,21.41
2023-05-22T23:24:26.752Z,21.34
2023-05-22T23:26:53.361Z,21.38
2023-05-22T23:29:20.360Z,21.25
2023-05-22T23:31:47.625Z,21.40
2023-05-22T23:34:14.306Z,21.35
2023-05-22T23:36:41.388Z,21.54
2023-05-22T23:39:08.101Z,21.30
2023-05-22T23:41:35.604Z,21.61
2023-05-22T23:44:02.610Z,21.78
2023-05-22T23:46:29.548Z,21.58
2023-05-22T23:48:56.403Z,21.47
2023-05-22T23:51:23.148Z,21.54
2023-05-22T23:53:49.892Z,21.75
2023-05-22T23:56:17.111Z,21.93
2023-05-22T23:58:43.792Z,21.94
